sensor_id;sensor_type;location;lat;lon;timestamp;P1;durP1;ratioP1;P2;durP2;ratioP2
77955;SDS011;67152;36.266;32.294;2023-12-14T10:10:46;4.35;;;2.67;;
77955;SDS011;67152;36.266;32.294;2023-12-14T10:13:19;6.68;;;2.80;;
77955;SDS011;67152;36.266;32.294;2023-12-14T10:15:47;7.82;;;2.85;;
77955;SDS011;67152;36.266;32.294;2023-12-14T10:18:23;5.40;;;2.65;;
77955;SDS011;67152;36.266;32.294;2023-12-14T10:20:50;6.60;;;3.03;;
77955;SDS011;67152;36.266;32.294;2023-12-14T10:23:17;5.90;;;2.83;;
77955;SDS011;67152;36.266;32.294;2023-12-14T10:25:44;5.97;;;2.70;;
77955;SDS011;67152;36.266;32.294;2023-12-14T10:28:12;6.18;;;2.72;;
77955;SDS011;67152;36.266;32.294;2023-12-14T10:30:39;6.55;;;2.72;;
77955;SDS011;67152;36.266;32.294;2023-12-14T10:35:32;6.17;;;2.60;;
77955;SDS011;67152;36.266;32.294;2023-12-14T10:38:01;8.68;;;2.60;;
77955;SDS011;67152;36.266;32.294;2023-12-14T10:40:32;5.57;;;2.60;;
77955;SDS011;67152;36.266;32.294;2023-12-14T10:43:00;6.15;;;2.55;;
77955;SDS011;67152;36.266;32.294;2023-12-14T10:45:28;5.18;;;2.28;;
77955;SDS011;67152;36.266;32.294;2023-12-14T10:47:59;5.38;;;2.42;;
77955;SDS011;67152;36.266;32.294;2023-12-14T10:50:30;4.63;;;2.20;;
77955;SDS011;67152;36.266;32.294;2023-12-14T10:52:57;6.15;;;2.30;;
77955;SDS011;67152;36.266;32.294;2023-12-14T10:57:54;6.35;;;2.75;;
77955;SDS011;67152;36.266;32.294;2023-12-14T11:00:25;5.97;;;3.30;;
77955;SDS011;67152;36.266;32.294;2023-12-14T11:03:15;5.50;;;2.50;;
77955;SDS011;67152;36.266;32.294;2023-12-14T11:05:43;7.07;;;2.50;;
77955;SDS011;67152;36.266;32.294;2023-12-14T11:08:10;5.35;;;2.47;;
77955;SDS011;67152;36.266;32.294;2023-12-14T11:10:41;12.20;;;2.80;;
77955;SDS011;67152;36.266;32.294;2023-12-14T11:13:12;7.03;;;3.03;;
77955;SDS011;67152;36.266;32.294;2023-12-14T11:15:40;6.07;;;2.40;;
77955;SDS011;67152;36.266;32.294;2023-12-14T11:23:13;4.85;;;2.95;;
77955;SDS011;67152;36.266;32.294;2023-12-14T11:25:53;4.63;;;2.40;;
77955;SDS011;67152;36.266;32.294;2023-12-14T11:28:20;4.72;;;2.42;;
77955;SDS011;67152;36.266;32.294;2023-12-14T11:30:47;6.22;;;2.47;;
77955;SDS011;67152;36.266;32.294;2023-12-14T11:33:14;8.90;;;2.35;;
77955;SDS011;67152;36.266;32.294;2023-12-14T11:35:41;6.72;;;3.72;;
77955;SDS011;67152;36.266;32.294;2023-12-14T11:38:09;7.18;;;3.00;;
77955;SDS011;67152;36.266;32.294;2023-12-14T11:40:42;4.18;;;2.00;;
77955;SDS011;67152;36.266;32.294;2023-12-14T11:43:08;5.13;;;2.50;;
77955;SDS011;67152;36.266;32.294;2023-12-14T11:45:38;4.32;;;2.05;;
77955;SDS011;67152;36.266;32.294;2023-12-14T11:48:09;6.60;;;2.40;;
77955;SDS011;67152;36.266;32.294;2023-12-14T11:50:37;5.10;;;2.45;;
77955;SDS011;67152;36.266;32.294;2023-12-14T11:53:05;9.55;;;2.10;;
77955;SDS011;67152;36.266;32.294;2023-12-14T11:55:33;4.07;;;2.03;;
77955;SDS011;67152;36.266;32.294;2023-12-14T11:58:02;6.32;;;2.60;;
77955;SDS011;67152;36.266;32.294;2023-12-14T12:00:29;10.10;;;2.53;;
77955;SDS011;67152;36.266;32.294;2023-12-14T12:03:13;5.65;;;2.50;;
77955;SDS011;67152;36.266;32.294;2023-12-14T12:05:44;6.30;;;2.63;;
77955;SDS011;67152;36.266;32.294;2023-12-14T12:08:11;10.13;;;2.63;;
77955;SDS011;67152;36.266;32.294;2023-12-14T12:13:12;3.97;;;2.28;;
77955;SDS011;67152;36.266;32.294;2023-12-14T12:15:39;6.22;;;1.80;;
77955;SDS011;67152;36.266;32.294;2023-12-14T12:18:06;5.77;;;2.03;;
77955;SDS011;67152;36.266;32.294;2023-12-14T12:20:37;4.85;;;2.13;;
77955;SDS011;67152;36.266;32.294;2023-12-14T12:23:03;3.65;;;2.15;;
77955;SDS011;67152;36.266;32.294;2023-12-14T12:25:30;3.57;;;1.70;;
77955;SDS011;67152;36.266;32.294;2023-12-14T12:27:58;4.28;;;1.92;;
77955;SDS011;67152;36.266;32.294;2023-12-14T12:30:25;3.08;;;2.10;;
77955;SDS011;67152;36.266;32.294;2023-12-14T12:32:54;3.80;;;1.92;;
77955;SDS011;67152;36.266;32.294;2023-12-14T12:35:25;5.80;;;1.95;;
77955;SDS011;67152;36.266;32.294;2023-12-14T12:37:51;4.43;;;1.90;;
77955;SDS011;67152;36.266;32.294;2023-12-14T12:40:21;7.13;;;2.17;;
77955;SDS011;67152;36.266;32.294;2023-12-14T12:42:48;3.90;;;1.98;;
77955;SDS011;67152;36.266;32.294;2023-12-14T12:45:16;4.70;;;2.63;;
77955;SDS011;67152;36.266;32.294;2023-12-14T12:47:43;4.32;;;2.22;;
77955;SDS011;67152;36.266;32.294;2023-12-14T12:50:10;3.90;;;2.13;;
77955;SDS011;67152;36.266;32.294;2023-12-14T12:52:37;3.65;;;2.05;;
77955;SDS011;67152;36.266;32.294;2023-12-14T12:55:07;5.88;;;2.20;;
77955;SDS011;67152;36.266;32.294;2023-12-14T12:57:35;4.22;;;2.00;;
77955;SDS011;67152;36.266;32.294;2023-12-14T13:00:02;6.68;;;2.28;;
77955;SDS011;67152;36.266;32.294;2023-12-14T13:02:37;6.03;;;2.40;;
77955;SDS011;67152;36.266;32.294;2023-12-14T13:05:05;5.70;;;2.22;;
77955;SDS011;67152;36.266;32.294;2023-12-14T13:07:36;4.53;;;2.50;;
77955;SDS011;67152;36.266;32.294;2023-12-14T13:10:04;8.48;;;2.53;;
77955;SDS011;67152;36.266;32.294;2023-12-14T13:12:32;6.20;;;2.10;;
77955;SDS011;67152;36.266;32.294;2023-12-14T13:14:59;10.93;;;2.20;;
77955;SDS011;67152;36.266;32.294;2023-12-14T13:17:26;10.05;;;2.58;;
77955;SDS011;67152;36.266;32.294;2023-12-14T13:19:52;5.75;;;2.08;;
77955;SDS011;67152;36.266;32.294;2023-12-14T13:25:44;4.90;;;2.50;;
77955;SDS011;67152;36.266;32.294;2023-12-14T13:28:19;23.63;;;3.78;;
77955;SDS011;67152;36.266;32.294;2023-12-14T13:30:46;6.30;;;2.50;;
77955;SDS011;67152;36.266;32.294;2023-12-14T13:33:12;11.20;;;2.80;;
77955;SDS011;67152;36.266;32.294;2023-12-14T13:35:39;3.43;;;2.20;;
77955;SDS011;67152;36.266;32.294;2023-12-14T13:38:05;9.77;;;2.80;;
77955;SDS011;67152;36.266;32.294;2023-12-14T13:40:54;7.18;;;2.75;;
77955;SDS011;67152;36.266;32.294;2023-12-14T13:43:40;5.28;;;3.25;;
77955;SDS011;67152;36.266;32.294;2023-12-14T13:46:07;4.65;;;2.70;;
77955;SDS011;67152;36.266;32.294;2023-12-14T13:48:33;7.88;;;2.78;;
77955;SDS011;67152;36.266;32.294;2023-12-14T13:50:59;13.37;;;3.20;;
77955;SDS011;67152;36.266;32.294;2023-12-14T13:53:26;14.23;;;3.42;;
77955;SDS011;67152;36.266;32.294;2023-12-14T13:58:19;8.20;;;3.27;;
77955;SDS011;67152;36.266;32.294;2023-12-14T14:00:46;9.30;;;3.58;;
77955;SDS011;67152;36.266;32.294;2023-12-14T14:03:12;5.87;;;4.00;;
77955;SDS011;67152;36.266;32.294;2023-12-14T14:05:39;8.77;;;2.77;;
77955;SDS011;67152;36.266;32.294;2023-12-14T14:08:05;6.37;;;2.80;;
77955;SDS011;67152;36.266;32.294;2023-12-14T14:10:32;8.30;;;3.60;;
77955;SDS011;67152;36.266;32.294;2023-12-14T14:12:58;6.87;;;3.27;;
77955;SDS011;67152;36.266;32.294;2023-12-14T14:15:25;8.53;;;3.30;;
77955;SDS011;67152;36.266;32.294;2023-12-14T14:17:51;14.82;;;3.50;;
77955;SDS011;67152;36.266;32.294;2023-12-14T14:20:19;11.88;;;3.58;;
77955;SDS011;67152;36.266;32.294;2023-12-14T14:22:46;19.10;;;3.50;;
77955;SDS011;67152;36.266;32.294;2023-12-14T14:25:12;7.73;;;3.73;;
77955;SDS011;67152;36.266;32.294;2023-12-14T14:27:39;13.18;;;3.63;;
77955;SDS011;67152;36.266;32.294;2023-12-14T14:30:06;14.18;;;4.78;;
77955;SDS011;67152;36.266;32.294;2023-12-14T14:32:33;11.65;;;4.70;;
77955;SDS011;67152;36.266;32.294;2023-12-14T14:35:04;11.52;;;4.45;;
77955;SDS011;67152;36.266;32.294;2023-12-14T14:37:32;15.00;;;4.47;;
77955;SDS011;67152;36.266;32.294;2023-12-14T14:39:58;17.70;;;4.80;;
77955;SDS011;67152;36.266;32.294;2023-12-14T14:42:28;11.52;;;4.15;;
77955;SDS011;67152;36.266;32.294;2023-12-14T14:44:56;29.42;;;7.05;;
77955;SDS011;67152;36.266;32.294;2023-12-14T14:47:22;24.23;;;8.07;;
77955;SDS011;67152;36.266;32.294;2023-12-14T14:49:50;23.17;;;5.78;;
77955;SDS011;67152;36.266;32.294;2023-12-14T14:52:16;46.65;;;10.07;;
77955;SDS011;67152;36.266;32.294;2023-12-14T14:54:43;87.60;;;12.68;;
77955;SDS011;67152;36.266;32.294;2023-12-14T14:57:12;63.08;;;19.85;;
77955;SDS011;67152;36.266;32.294;2023-12-14T14:59:39;43.70;;;20.70;;
77955;SDS011;67152;36.266;32.294;2023-12-14T15:02:07;82.18;;;25.45;;
77955;SDS011;67152;36.266;32.294;2023-12-14T15:04:36;83.65;;;24.48;;
77955;SDS011;67152;36.266;32.294;2023-12-14T15:07:03;89.30;;;38.17;;
77955;SDS011;67152;36.266;32.294;2023-12-14T15:09:30;73.77;;;33.03;;
77955;SDS011;67152;36.266;32.294;2023-12-14T15:11:56;73.82;;;32.50;;
77955;SDS011;67152;36.266;32.294;2023-12-14T15:14:23;67.35;;;27.92;;
77955;SDS011;67152;36.266;32.294;2023-12-14T15:16:49;63.90;;;29.60;;
77955;SDS011;67152;36.266;32.294;2023-12-14T15:19:16;69.18;;;31.88;;
77955;SDS011;67152;36.266;32.294;2023-12-14T15:21:42;66.72;;;35.20;;
77955;SDS011;67152;36.266;32.294;2023-12-14T15:24:09;63.60;;;33.45;;
77955;SDS011;67152;36.266;32.294;2023-12-14T15:26:35;67.25;;;34.40;;
77955;SDS011;67152;36.266;32.294;2023-12-14T15:29:02;59.28;;;27.02;;
77955;SDS011;67152;36.266;32.294;2023-12-14T15:31:29;80.88;;;38.65;;
77955;SDS011;67152;36.266;32.294;2023-12-14T15:33:56;34.22;;;18.70;;
77955;SDS011;67152;36.266;32.294;2023-12-14T15:36:22;52.10;;;31.00;;
77955;SDS011;67152;36.266;32.294;2023-12-14T15:38:49;53.42;;;27.55;;
77955;SDS011;67152;36.266;32.294;2023-12-14T15:41:15;49.53;;;23.75;;
77955;SDS011;67152;36.266;32.294;2023-12-14T15:43:42;84.05;;;39.75;;
77955;SDS011;67152;36.266;32.294;2023-12-14T15:46:08;71.22;;;34.85;;
77955;SDS011;67152;36.266;32.294;2023-12-14T15:48:35;79.30;;;33.25;;
77955;SDS011;67152;36.266;32.294;2023-12-14T15:51:06;68.93;;;36.17;;
77955;SDS011;67152;36.266;32.294;2023-12-14T15:53:32;80.13;;;36.95;;
77955;SDS011;67152;36.266;32.294;2023-12-14T15:55:59;74.63;;;36.60;;
77955;SDS011;67152;36.266;32.294;2023-12-14T15:58:25;57.90;;;34.42;;
77955;SDS011;67152;36.266;32.294;2023-12-14T16:00:53;66.20;;;37.38;;
77955;SDS011;67152;36.266;32.294;2023-12-14T16:03:19;85.03;;;37.45;;
77955;SDS011;67152;36.266;32.294;2023-12-14T16:05:46;77.13;;;35.80;;
77955;SDS011;67152;36.266;32.294;2023-12-14T16:08:13;62.73;;;33.97;;
77955;SDS011;67152;36.266;32.294;2023-12-14T16:10:39;73.00;;;36.03;;
77955;SDS011;67152;36.266;32.294;2023-12-14T16:13:07;79.45;;;47.55;;
77955;SDS011;67152;36.266;32.294;2023-12-14T16:15:34;60.70;;;36.95;;
77955;SDS011;67152;36.266;32.294;2023-12-14T16:18:00;48.83;;;25.83;;
77955;SDS011;67152;36.266;32.294;2023-12-14T16:20:27;56.78;;;29.60;;
77955;SDS011;67152;36.266;32.294;2023-12-14T16:22:53;56.22;;;29.15;;
77955;SDS011;67152;36.266;32.294;2023-12-14T16:25:23;50.17;;;30.17;;
77955;SDS011;67152;36.266;32.294;2023-12-14T16:27:50;41.40;;;22.88;;
77955;SDS011;67152;36.266;32.294;2023-12-14T16:30:16;36.45;;;21.92;;
77955;SDS011;67152;36.266;32.294;2023-12-14T16:33:02;39.60;;;21.23;;
77955;SDS011;67152;36.266;32.294;2023-12-14T16:35:29;35.63;;;21.17;;
77955;SDS011;67152;36.266;32.294;2023-12-14T16:37:56;41.72;;;24.48;;
77955;SDS011;67152;36.266;32.294;2023-12-14T16:40:23;46.47;;;27.10;;
77955;SDS011;67152;36.266;32.294;2023-12-14T16:42:49;59.05;;;28.55;;
77955;SDS011;67152;36.266;32.294;2023-12-14T16:45:16;50.83;;;30.33;;
77955;SDS011;67152;36.266;32.294;2023-12-14T16:47:42;51.00;;;29.83;;
77955;SDS011;67152;36.266;32.294;2023-12-14T16:50:09;40.78;;;23.10;;
77955;SDS011;67152;36.266;32.294;2023-12-14T16:52:37;31.98;;;18.17;;
77955;SDS011;67152;36.266;32.294;2023-12-14T16:55:04;41.65;;;22.60;;
77955;SDS011;67152;36.266;32.294;2023-12-14T16:57:33;48.58;;;20.55;;
77955;SDS011;67152;36.266;32.294;2023-12-14T17:00:01;41.08;;;18.25;;
77955;SDS011;67152;36.266;32.294;2023-12-14T17:02:29;36.63;;;18.75;;
77955;SDS011;67152;36.266;32.294;2023-12-14T17:04:57;31.33;;;17.48;;
77955;SDS011;67152;36.266;32.294;2023-12-14T17:07:26;29.55;;;18.48;;
77955;SDS011;67152;36.266;32.294;2023-12-14T17:09:55;33.08;;;17.95;;
77955;SDS011;67152;36.266;32.294;2023-12-14T17:12:22;24.33;;;13.23;;
77955;SDS011;67152;36.266;32.294;2023-12-14T17:14:48;16.60;;;9.55;;
77955;SDS011;67152;36.266;32.294;2023-12-14T17:17:15;28.02;;;13.52;;
77955;SDS011;67152;36.266;32.294;2023-12-14T17:19:41;30.90;;;17.63;;
77955;SDS011;67152;36.266;32.294;2023-12-14T17:22:08;27.23;;;16.10;;
77955;SDS011;67152;36.266;32.294;2023-12-14T17:24:34;27.83;;;16.75;;
77955;SDS011;67152;36.266;32.294;2023-12-14T17:27:01;30.67;;;18.33;;
77955;SDS011;67152;36.266;32.294;2023-12-14T17:29:27;32.92;;;21.33;;
77955;SDS011;67152;36.266;32.294;2023-12-14T17:31:54;27.48;;;14.85;;
77955;SDS011;67152;36.266;32.294;2023-12-14T17:34:22;32.00;;;15.70;;
77955;SDS011;67152;36.266;32.294;2023-12-14T17:36:51;30.20;;;18.27;;
77955;SDS011;67152;36.266;32.294;2023-12-14T17:39:17;27.92;;;17.25;;
77955;SDS011;67152;36.266;32.294;2023-12-14T17:41:44;30.42;;;16.20;;
77955;SDS011;67152;36.266;32.294;2023-12-14T17:44:12;27.80;;;18.92;;
77955;SDS011;67152;36.266;32.294;2023-12-14T17:46:38;36.87;;;16.73;;
77955;SDS011;67152;36.266;32.294;2023-12-14T17:49:05;37.55;;;17.40;;
77955;SDS011;67152;36.266;32.294;2023-12-14T17:51:32;35.88;;;18.27;;
77955;SDS011;67152;36.266;32.294;2023-12-14T17:53:59;39.78;;;23.55;;
77955;SDS011;67152;36.266;32.294;2023-12-14T17:56:26;35.22;;;21.13;;
77955;SDS011;67152;36.266;32.294;2023-12-14T17:58:53;46.95;;;25.58;;
77955;SDS011;67152;36.266;32.294;2023-12-14T18:01:19;37.28;;;20.85;;
77955;SDS011;67152;36.266;32.294;2023-12-14T18:03:48;38.25;;;19.98;;
77955;SDS011;67152;36.266;32.294;2023-12-14T18:06:15;37.70;;;17.35;;
77955;SDS011;67152;36.266;32.294;2023-12-14T18:08:41;31.00;;;17.48;;
77955;SDS011;67152;36.266;32.294;2023-12-14T18:11:09;24.10;;;13.88;;
77955;SDS011;67152;36.266;32.294;2023-12-14T18:13:36;36.75;;;19.58;;
77955;SDS011;67152;36.266;32.294;2023-12-14T18:16:03;26.40;;;17.08;;
77955;SDS011;67152;36.266;32.294;2023-12-14T18:18:30;33.92;;;16.80;;
77955;SDS011;67152;36.266;32.294;2023-12-14T18:20:59;35.45;;;17.98;;
77955;SDS011;67152;36.266;32.294;2023-12-14T18:23:25;43.70;;;20.70;;
77955;SDS011;67152;36.266;32.294;2023-12-14T18:25:52;34.90;;;17.60;;
77955;SDS011;67152;36.266;32.294;2023-12-14T18:28:19;27.55;;;16.88;;
77955;SDS011;67152;36.266;32.294;2023-12-14T18:30:46;22.83;;;14.20;;
77955;SDS011;67152;36.266;32.294;2023-12-14T18:33:12;32.50;;;16.65;;
77955;SDS011;67152;36.266;32.294;2023-12-14T18:35:39;28.15;;;15.93;;
77955;SDS011;67152;36.266;32.294;2023-12-14T18:38:05;27.80;;;17.20;;
77955;SDS011;67152;36.266;32.294;2023-12-14T18:40:32;34.72;;;15.60;;
77955;SDS011;67152;36.266;32.294;2023-12-14T18:42:59;26.00;;;16.70;;
77955;SDS011;67152;36.266;32.294;2023-12-14T18:45:25;32.63;;;15.98;;
77955;SDS011;67152;36.266;32.294;2023-12-14T18:47:52;30.35;;;17.83;;
77955;SDS011;67152;36.266;32.294;2023-12-14T18:50:19;35.60;;;18.77;;
77955;SDS011;67152;36.266;32.294;2023-12-14T18:52:45;27.70;;;14.82;;
77955;SDS011;67152;36.266;32.294;2023-12-14T18:55:12;25.98;;;15.07;;
77955;SDS011;67152;36.266;32.294;2023-12-14T18:57:38;33.33;;;20.15;;
77955;SDS011;67152;36.266;32.294;2023-12-14T19:00:08;30.52;;;14.57;;
77955;SDS011;67152;36.266;32.294;2023-12-14T19:02:35;24.67;;;14.38;;
77955;SDS011;67152;36.266;32.294;2023-12-14T19:05:04;33.10;;;16.10;;
77955;SDS011;67152;36.266;32.294;2023-12-14T19:07:31;35.60;;;17.80;;
77955;SDS011;67152;36.266;32.294;2023-12-14T19:09:58;19.45;;;12.05;;
77955;SDS011;67152;36.266;32.294;2023-12-14T19:12:24;33.38;;;12.02;;
77955;SDS011;67152;36.266;32.294;2023-12-14T19:14:51;18.15;;;10.23;;
77955;SDS011;67152;36.266;32.294;2023-12-14T19:17:17;24.00;;;12.73;;
77955;SDS011;67152;36.266;32.294;2023-12-14T19:19:44;39.22;;;19.30;;
77955;SDS011;67152;36.266;32.294;2023-12-14T19:22:10;34.30;;;19.30;;
77955;SDS011;67152;36.266;32.294;2023-12-14T19:24:38;29.77;;;16.60;;
77955;SDS011;67152;36.266;32.294;2023-12-14T19:27:04;29.95;;;16.15;;
77955;SDS011;67152;36.266;32.294;2023-12-14T19:29:35;26.70;;;17.05;;
77955;SDS011;67152;36.266;32.294;2023-12-14T19:34:29;26.08;;;14.77;;
77955;SDS011;67152;36.266;32.294;2023-12-14T19:37:25;23.92;;;13.32;;
77955;SDS011;67152;36.266;32.294;2023-12-14T19:39:51;32.72;;;13.63;;
77955;SDS011;67152;36.266;32.294;2023-12-14T19:42:18;24.25;;;12.13;;
77955;SDS011;67152;36.266;32.294;2023-12-14T19:44:45;30.92;;;14.95;;
77955;SDS011;67152;36.266;32.294;2023-12-14T19:47:12;27.90;;;12.98;;
77955;SDS011;67152;36.266;32.294;2023-12-14T19:49:38;28.00;;;13.75;;
77955;SDS011;67152;36.266;32.294;2023-12-14T19:52:06;28.15;;;11.02;;
77955;SDS011;67152;36.266;32.294;2023-12-14T19:54:32;32.10;;;14.85;;
77955;SDS011;67152;36.266;32.294;2023-12-14T19:56:59;24.33;;;13.77;;
77955;SDS011;67152;36.266;32.294;2023-12-14T19:59:25;19.98;;;12.10;;
77955;SDS011;67152;36.266;32.294;2023-12-14T20:01:52;24.98;;;10.85;;
77955;SDS011;67152;36.266;32.294;2023-12-14T20:04:18;22.83;;;11.38;;
77955;SDS011;67152;36.266;32.294;2023-12-14T20:06:44;18.77;;;9.07;;
77955;SDS011;67152;36.266;32.294;2023-12-14T20:09:11;23.48;;;11.30;;
77955;SDS011;67152;36.266;32.294;2023-12-14T20:11:37;24.95;;;11.10;;
77955;SDS011;67152;36.266;32.294;2023-12-14T20:14:24;12.95;;;8.63;;
77955;SDS011;67152;36.266;32.294;2023-12-14T20:16:50;19.08;;;9.48;;
77955;SDS011;67152;36.266;32.294;2023-12-14T20:19:16;14.55;;;8.98;;
77955;SDS011;67152;36.266;32.294;2023-12-14T20:21:43;14.38;;;10.45;;
77955;SDS011;67152;36.266;32.294;2023-12-14T20:24:09;19.45;;;9.00;;
77955;SDS011;67152;36.266;32.294;2023-12-14T20:26:36;20.80;;;8.15;;
77955;SDS011;67152;36.266;32.294;2023-12-14T20:29:02;17.65;;;9.68;;
77955;SDS011;67152;36.266;32.294;2023-12-14T20:31:29;18.10;;;9.18;;
77955;SDS011;67152;36.266;32.294;2023-12-14T20:33:56;15.00;;;8.43;;
77955;SDS011;67152;36.266;32.294;2023-12-14T20:36:22;16.27;;;8.55;;
77955;SDS011;67152;36.266;32.294;2023-12-14T20:38:49;21.75;;;10.55;;
77955;SDS011;67152;36.266;32.294;2023-12-14T20:41:15;19.08;;;10.18;;
77955;SDS011;67152;36.266;32.294;2023-12-14T20:43:42;21.77;;;9.07;;
77955;SDS011;67152;36.266;32.294;2023-12-14T20:46:09;20.92;;;11.35;;
77955;SDS011;67152;36.266;32.294;2023-12-14T20:48:35;14.93;;;9.57;;
77955;SDS011;67152;36.266;32.294;2023-12-14T20:51:05;24.77;;;11.30;;
77955;SDS011;67152;36.266;32.294;2023-12-14T20:53:32;17.27;;;9.48;;
77955;SDS011;67152;36.266;32.294;2023-12-14T20:56:19;15.18;;;9.65;;
77955;SDS011;67152;36.266;32.294;2023-12-14T20:58:45;14.55;;;8.38;;
77955;SDS011;67152;36.266;32.294;2023-12-14T21:01:11;15.65;;;8.93;;
77955;SDS011;67152;36.266;32.294;2023-12-14T21:03:38;19.30;;;9.23;;
77955;SDS011;67152;36.266;32.294;2023-12-14T21:06:05;16.08;;;8.85;;
77955;SDS011;67152;36.266;32.294;2023-12-14T21:10:58;16.65;;;7.95;;
77955;SDS011;67152;36.266;32.294;2023-12-14T21:13:26;18.38;;;7.68;;
77955;SDS011;67152;36.266;32.294;2023-12-14T21:15:53;12.82;;;6.43;;
77955;SDS011;67152;36.266;32.294;2023-12-14T21:18:19;16.30;;;6.70;;
77955;SDS011;67152;36.266;32.294;2023-12-14T21:20:46;13.27;;;7.20;;
77955;SDS011;67152;36.266;32.294;2023-12-14T21:23:12;14.65;;;7.78;;
77955;SDS011;67152;36.266;32.294;2023-12-14T21:25:39;9.57;;;5.50;;
77955;SDS011;67152;36.266;32.294;2023-12-14T21:30:42;10.48;;;6.20;;
77955;SDS011;67152;36.266;32.294;2023-12-14T21:33:09;12.00;;;5.95;;
77955;SDS011;67152;36.266;32.294;2023-12-14T21:35:35;12.20;;;6.50;;
77955;SDS011;67152;36.266;32.294;2023-12-14T21:38:02;11.30;;;6.03;;
77955;SDS011;67152;36.266;32.294;2023-12-14T21:40:29;11.32;;;6.65;;
77955;SDS011;67152;36.266;32.294;2023-12-14T21:42:55;12.23;;;7.63;;
77955;SDS011;67152;36.266;32.294;2023-12-14T21:45:22;12.35;;;8.02;;
77955;SDS011;67152;36.266;32.294;2023-12-14T21:47:48;13.88;;;6.43;;
77955;SDS011;67152;36.266;32.294;2023-12-14T21:50:15;17.20;;;7.32;;
77955;SDS011;67152;36.266;32.294;2023-12-14T21:52:41;12.60;;;6.05;;
77955;SDS011;67152;36.266;32.294;2023-12-14T21:55:07;11.02;;;6.03;;
77955;SDS011;67152;36.266;32.294;2023-12-14T21:57:34;8.48;;;4.32;;
77955;SDS011;67152;36.266;32.294;2023-12-14T22:00:00;8.73;;;4.43;;
77955;SDS011;67152;36.266;32.294;2023-12-14T22:02:27;10.40;;;4.57;;
77955;SDS011;67152;36.266;32.294;2023-12-14T22:04:53;11.43;;;4.80;;
77955;SDS011;67152;36.266;32.294;2023-12-14T22:07:20;9.07;;;3.95;;
77955;SDS011;67152;36.266;32.294;2023-12-14T22:09:47;9.32;;;4.80;;
77955;SDS011;67152;36.266;32.294;2023-12-14T22:12:13;6.50;;;4.00;;
77955;SDS011;67152;36.266;32.294;2023-12-14T22:14:40;9.60;;;4.72;;
77955;SDS011;67152;36.266;32.294;2023-12-14T22:17:06;8.10;;;4.57;;
77955;SDS011;67152;36.266;32.294;2023-12-14T22:19:33;9.57;;;4.20;;
77955;SDS011;67152;36.266;32.294;2023-12-14T22:22:03;8.38;;;3.83;;
77955;SDS011;67152;36.266;32.294;2023-12-14T22:24:30;6.28;;;4.38;;
77955;SDS011;67152;36.266;32.294;2023-12-14T22:26:56;6.40;;;4.15;;
77955;SDS011;67152;36.266;32.294;2023-12-14T22:29:22;8.13;;;3.67;;
77955;SDS011;67152;36.266;32.294;2023-12-14T22:31:49;7.30;;;4.03;;
77955;SDS011;67152;36.266;32.294;2023-12-14T22:34:15;8.95;;;4.95;;
77955;SDS011;67152;36.266;32.294;2023-12-14T22:36:41;6.13;;;4.18;;
77955;SDS011;67152;36.266;32.294;2023-12-14T22:39:08;8.45;;;4.10;;
77955;SDS011;67152;36.266;32.294;2023-12-14T22:41:34;9.13;;;4.57;;
77955;SDS011;67152;36.266;32.294;2023-12-14T22:44:00;8.38;;;4.28;;
77955;SDS011;67152;36.266;32.294;2023-12-14T22:46:27;7.97;;;4.53;;
77955;SDS011;67152;36.266;32.294;2023-12-14T22:48:53;10.25;;;3.90;;
77955;SDS011;67152;36.266;32.294;2023-12-14T22:51:20;5.95;;;4.32;;
77955;SDS011;67152;36.266;32.294;2023-12-14T22:53:47;12.45;;;4.63;;
77955;SDS011;67152;36.266;32.294;2023-12-14T22:56:23;8.05;;;4.90;;
77955;SDS011;67152;36.266;32.294;2023-12-14T22:58:50;12.88;;;5.80;;
77955;SDS011;67152;36.266;32.294;2023-12-14T23:01:33;11.02;;;4.40;;
77955;SDS011;67152;36.266;32.294;2023-12-14T23:04:01;8.07;;;3.80;;
77955;SDS011;67152;36.266;32.294;2023-12-14T23:06:28;14.55;;;4.25;;
77955;SDS011;67152;36.266;32.294;2023-12-14T23:08:56;11.63;;;3.75;;
77955;SDS011;67152;36.266;32.294;2023-12-14T23:11:22;7.53;;;4.20;;
77955;SDS011;67152;36.266;32.294;2023-12-14T23:13:48;5.25;;;3.65;;
77955;SDS011;67152;36.266;32.294;2023-12-14T23:16:15;9.07;;;4.32;;
77955;SDS011;67152;36.266;32.294;2023-12-14T23:18:41;7.80;;;5.03;;
77955;SDS011;67152;36.266;32.294;2023-12-14T23:21:08;9.45;;;4.93;;
77955;SDS011;67152;36.266;32.294;2023-12-14T23:23:34;9.68;;;5.38;;
77955;SDS011;67152;36.266;32.294;2023-12-14T23:26:01;8.60;;;5.10;;
77955;SDS011;67152;36.266;32.294;2023-12-14T23:28:27;9.48;;;5.70;;
77955;SDS011;67152;36.266;32.294;2023-12-14T23:30:53;10.43;;;5.43;;
77955;SDS011;67152;36.266;32.294;2023-12-14T23:33:20;8.07;;;6.22;;
77955;SDS011;67152;36.266;32.294;2023-12-14T23:35:46;8.52;;;4.70;;
77955;SDS011;67152;36.266;32.294;2023-12-14T23:38:12;6.72;;;3.83;;
77955;SDS011;67152;36.266;32.294;2023-12-14T23:40:39;10.35;;;3.78;;
77955;SDS011;67152;36.266;32.294;2023-12-14T23:43:06;5.75;;;3.30;;
77955;SDS011;67152;36.266;32.294;2023-12-14T23:45:32;6.25;;;3.45;;
77955;SDS011;67152;36.266;32.294;2023-12-14T23:47:59;5.85;;;2.90;;
77955;SDS011;67152;36.266;32.294;2023-12-14T23:50:25;8.88;;;3.10;;
77955;SDS011;67152;36.266;32.294;2023-12-14T23:52:51;5.93;;;3.13;;
77955;SDS011;67152;36.266;32.294;2023-12-14T23:55:18;5.25;;;3.20;;
77955;SDS011;67152;36.266;32.294;2023-12-14T23:57:44;8.93;;;3.53;;
